Main page
METAR-TAF:

METAR-TAF

Airports :

Scatsta, Shetland, Scotland

Scatsta Airport

latitude: 60-26N, longitude: 001-18W, elevation: 22 m

Current weather observation

The report was made 21 minutes ago, at 23:50 UTC
Wind 5 kt from the Southwest
Temperature 10°C
Humidity 87%
Pressure 1013 hPa
Visibility 10 km or more

METAR: EGPM 192350Z AUTO 23005KT 9999 NCD 10/08 Q1013

Time: 01:11 (00:11 UTC)

Forecast

The report was made 7 hours and 13 minutes ago, at 16:58 UTC
Forecast valid from 19 at 18 UTC to 19 at 20 UTC
Wind 9 kt from the Northwest
Visibility 10 km or more
Scattered clouds at a height of 2500 ft

TAF: EGPM 191658Z 1918/1920 31009KT 9999 SCT025

Weather observations and forecasts of more than 4000 airports (METAR and TAF reports).

The available stations are represented by yellow and red dots on the map.

Hover mouse over dot to see the name of the station.

Then click to see weather observations and forecasts.

To change the map : click on the green buttons with a black cross to zoom in, on the green button with a dash to zoom out, or on the green arrows for adjacent maps.


METAR-TAF: